Meridian Lake, Colorado
Current Conditions -  °F | °C
As of 6:53 AM on Friday 31 Oct 2014 (Local Time) from KASE Reporting Station
Clear Clear  
Wind Chill: 24°   Ceiling: Unl
Heat Index: 30°   Visibility: 10mi
Dew Point: 19°   Wind: 6mph
Humidity: 64%   Direction: 160°SSE
Pressure: 30.32"   Gusts: NA
Location:  38.8977°N, 106.967°W
Report Text: KASE 311253Z 16005KT 10SM CLR M01/M07 A3032 RMK AO2 SLP227 T10111072
Loading
Personal Weather Stations






























Interactive Weather Map
Tropical Storm Tracking
New forecast layout! Learn more

10-Day Weather Forecast

Advertisements
Track Severe Weather on mobile